Besuchen Sie unsere anderen Wetter Stationen:

Template documentation
and downloads

And another site


METAR-Meldungen aus der Umgebung


Warning: A non-numeric value encountered in /is/htdocs/wp10906056_0YHW7Q9XB7/www/weather28/metar/metarDisplay.php on line 166
   
EHVK - Volkel Rnlafb, Netherlands
Entfernung von der Station bis: SW 18 km
Aktualisierung: 06-12-2021 16:25
Nebel, Bewölkt  
Nebel, Bewölkt  
   Wind: SSO 11.1 km/h
Wind: SSO 11.1 km/h
Temperatur: 3°C
Gefühlt: 0°C
Taupunkt: 2°C
Luftfeuchte: 93%
Luftdruck: 1010 hPa
Bewölkt: Bewölkt
Sichtbarkeit: 6 km
Bewölkung: Bewölkt 3962.4 m
EHVK 061525Z AUTO 15006KT 120V180 6000 BR OVC130 03/02 Q1010 WHT NOSIG
EDLV - Niederrhein, Germany
Entfernung von der Station bis: SO 25 km
Aktualisierung: 06-12-2021 16:20
Klar  
Klar  
   Wind: SO 9.3 km/h
Wind: SO 9.3 km/h
Temperatur: 3°C
Gefühlt: 1°C
Taupunkt: 2°C
Luftfeuchte: 93%
Luftdruck: 1010 hPa
Sichtbarkeit: More than 10 km
Bewölkung: Klar
EDLV 061520Z 14005KT CAVOK 03/02 Q1010
EHDL - Deelen Rnlafb, Netherlands
Entfernung von der Station bis: N 35 km
Aktualisierung: 06-12-2021 16:25
Nebel, Bewölkt  
Nebel, Bewölkt  
   Wind: SSO 16.7 km/h
Wind: SSO 16.7 km/h
Temperatur: 2°C
Gefühlt: -2°C
Taupunkt: 1°C
Luftfeuchte: 93%
Luftdruck: 1009 hPa
Bewölkt: Bewölkt
Sichtbarkeit: 7 km
Bewölkung: leicht bewölkt 152.4 m,
Stark bewölkt 182.9 m,
Bewölkt 213.4 m
EHDL 061525Z AUTO 16009KT 120V210 7000 BR FEW005 BKN006 OVC007 02/01 Q1009 YLO
EHEH - Eindhoven Rnlafb, Netherlands
Entfernung von der Station bis: SW 48 km
Aktualisierung: 06-12-2021 16:25
Bewölkt  
Bewölkt  
   Wind: SSO 13 km/h
Wind: SSO 13 km/h
Temperatur: 4°C
Gefühlt: 1°C
Taupunkt: 2°C
Luftfeuchte: 87%
Luftdruck: 1009 hPa
Bewölkt: Bewölkt
Sichtbarkeit: More than 10 km
Bewölkung: Stark bewölkt 914.4 m,
Stark bewölkt 3017.5 m,
Bewölkt 3048 m
EHEH 061525Z AUTO 16007KT 130V200 9999 BKN030 BKN099 OVC100 04/02 Q1009 BLU NOSIG
EHGR - Gilze-Rijen Rnla, Netherlands
Entfernung von der Station bis: WSW 70 km
Aktualisierung: 06-12-2021 16:25
Bewölkt  
Bewölkt  
   Wind: SSO 14.8 km/h
Wind: SSO 14.8 km/h
Temperatur: 4°C
Gefühlt: 1°C
Taupunkt: 1°C
Luftfeuchte: 81%
Luftdruck: 1008 hPa
Bewölkt: Bewölkt
Sichtbarkeit: More than 10 km
Bewölkung: Bewölkt 3657.6 m
EHGR 061525Z AUTO 15008KT 110V180 9999 OVC120 04/01 Q1008 BLU NOSIG
EBBL - Kleine-Brogel(Ba, Belgium
Entfernung von der Station bis: SSW 71 km
Aktualisierung: 06-12-2021 16:25
Bewölkt  
Bewölkt  
   Wind: Süden 7.4 km/h
Wind: Süden 7.4 km/h
Temperatur: 4°C
Gefühlt: 2°C
Taupunkt: 1°C
Luftfeuchte: 81%
Luftdruck: 1009 hPa
Bewölkt: Bewölkt
Sichtbarkeit: More than 10 km
Bewölkung: Bewölkt 4572 m
EBBL 061525Z AUTO 17004KT 9999 OVC150/// 04/01 Q1009 BLU

Script entwickelt von  Saratoga-weather.org Angepasst für das Template von  Weerstation Leuven

Sie finden unser Wetter-Infos auch auf:

netzwerkwettercom

European Weather Network

WeatherCloud

AWEKAS

Citizen Weather Observer Program (CWOP)

HAMweather, WeatherForYou, PWS Weather

Von uns verwendete Ausrüstung:

Wetterstation
Davis VP2

Wetterprogramm
Weather Display

Davis VP2

Weather Display